Time;durP1;ratioP1;P1;durP2;ratioP2;P2;SDS_P1;SDS_P2;PMS_P1;PMS_P2;Temp;Humidity;BMP_temperature;BMP_pressure;BME280_temperature;BME280_humidity;BME280_pressure;Samples;Min_cycle;Max_cycle;Signal;HPM_P1;HPM_P2
2021/07/30 00:01:32;;;;;;;;;;;;;;;20.39;50.94;99554.08;126727;1090;103000;-82
2021/07/30 00:04:20;;;;;;;8.80;5.30;;;;;;;20.40;51.13;99553.10;126714;1089;102847;-82
2021/07/30 00:07:08;;;;;;;6.10;5.23;;;;;;;20.40;51.12;99545.16;126775;1089;102994;-82
2021/07/30 00:09:55;;;;;;;8.40;5.47;;;;;;;20.41;50.97;99545.06;126683;1089;113006;-82
2021/07/30 00:12:43;;;;;;;6.83;5.40;;;;;;;20.41;51.15;99545.06;126742;1090;103847;-82
2021/07/30 00:15:32;;;;;;;7.37;5.27;;;;;;;20.44;51.09;99550.09;126795;1089;114104;-82
2021/07/30 00:18:23;;;;;;;6.03;5.23;;;;;;;20.48;51.39;99546.24;126629;1090;102864;-82
2021/07/30 00:21:11;;;;;;;6.70;5.20;;;;;;;20.53;51.04;99552.95;126647;1089;113266;-82
2021/07/30 00:23:59;;;;;;;7.43;5.67;;;;;;;20.51;51.06;99545.14;126737;1090;102850;-82
2021/07/30 00:26:48;;;;;;;8.93;5.33;;;;;;;20.45;51.01;99549.13;126676;1089;107220;-83
2021/07/30 00:29:37;;;;;;;6.73;5.20;;;;;;;20.45;51.18;99546.47;126829;1089;103006;-82
2021/07/30 00:32:25;;;;;;;6.73;5.30;;;;;;;20.43;50.82;99542.28;126934;1089;102146;-82
2021/07/30 00:35:13;;;;;;;5.87;5.27;;;;;;;20.41;51.04;99545.06;126637;1088;113968;-82
2021/07/30 00:38:00;;;;;;;7.43;5.53;;;;;;;20.44;50.81;99543.95;126783;1090;100754;-82
2021/07/30 00:40:50;;;;;;;9.00;5.97;;;;;;;20.44;51.42;99551.91;126643;1089;113931;-82
2021/07/30 00:43:37;;;;;;;5.37;4.87;;;;;;;20.41;51.22;99545.06;126706;1090;102870;-82
2021/07/30 00:46:27;;;;;;;8.07;5.37;;;;;;;20.42;51.54;99556.49;126673;1090;113018;-82
2021/07/30 00:49:16;;;;;;;5.90;5.30;;;;;;;20.42;51.31;99552.03;126919;1089;103013;-82
2021/07/30 00:52:05;;;;;;;6.60;5.50;;;;;;;20.39;50.98;99546.97;126663;1089;114160;-81
2021/07/30 00:54:55;;;;;;;6.40;5.60;;;;;;;20.36;51.15;99543.74;126770;1090;102882;-82
2021/07/30 00:57:44;;;;;;;8.90;5.40;;;;;;;20.35;51.50;99540.25;126703;1089;114091;-81
2021/07/30 01:00:32;;;;;;;6.43;5.40;;;;;;;20.35;51.12;99547.36;126773;1089;102735;-82
2021/07/30 01:03:19;;;;;;;7.07;5.03;;;;;;;20.33;50.98;99539.55;126606;1089;114075;-82
2021/07/30 01:06:07;;;;;;;7.27;5.47;;;;;;;20.34;51.33;99543.03;126780;1090;102983;-82
2021/07/30 01:08:55;;;;;;;7.93;5.40;;;;;;;20.33;51.23;99531.60;126835;1090;101430;-82
2021/07/30 01:11:44;;;;;;;5.70;5.10;;;;;;;20.34;51.47;99541.22;126609;1090;113753;-81
2021/07/30 01:14:32;;;;;;;7.77;5.23;;;;;;;20.34;51.37;99538.58;126847;1090;102856;-81
2021/07/30 01:17:21;;;;;;;7.40;5.50;;;;;;;20.36;51.03;99533.15;126687;1089;112840;-82
2021/07/30 01:20:11;;;;;;;9.07;5.33;;;;;;;20.34;51.36;99532.44;126836;1090;102968;-82
2021/07/30 01:23:00;;;;;;;7.03;5.43;;;;;;;20.30;51.44;99523.08;126695;1090;113072;-82
2021/07/30 01:25:48;;;;;;;9.03;5.10;;;;;;;20.27;51.31;99518.85;126796;1090;103030;-81
2021/07/30 01:28:36;;;;;;;7.87;5.17;;;;;;;20.27;51.47;99526.80;126755;1090;114105;-81
2021/07/30 01:31:23;;;;;;;6.20;5.10;;;;;;;20.20;51.12;99528.29;126770;1088;102744;-81
2021/07/30 01:34:11;;;;;;;8.23;5.77;;;;;;;20.14;51.79;99527.00;126667;1090;114290;-81
2021/07/30 01:36:58;;;;;;;5.97;5.33;;;;;;;20.12;51.83;99528.94;126728;1089;100635;-81
2021/07/30 01:39:46;;;;;;;7.13;5.70;;;;;;;20.10;52.12;99533.50;126579;1089;114105;-82
2021/07/30 01:42:36;;;;;;;7.80;5.17;;;;;;;20.06;52.08;99529.42;126870;1090;101124;-81
2021/07/30 01:45:24;;;;;;;6.87;5.80;;;;;;;20.04;52.18;99526.07;126702;1089;114235;-82
2021/07/30 01:48:12;;;;;;;7.33;5.17;;;;;;;20.06;52.33;99529.42;126859;1089;102871;-81
2021/07/30 01:51:00;;;;;;;7.03;5.03;;;;;;;20.03;51.96;99515.61;126882;1090;103006;-82
2021/07/30 01:53:48;;;;;;;5.87;5.20;;;;;;;19.99;52.22;99528.27;126703;1090;112894;-82
2021/07/30 01:56:36;;;;;;;6.13;5.30;;;;;;;20.00;52.08;99529.11;127026;1090;103074;-82
2021/07/30 01:59:24;;;;;;;7.97;5.77;;;;;;;20.01;52.12;99531.63;126729;1089;112925;-82
2021/07/30 02:02:12;;;;;;;5.87;5.27;;;;;;;20.02;51.99;99537.76;126816;1089;102850;-82
2021/07/30 02:05:01;;;;;;;6.27;5.37;;;;;;;20.00;52.01;99534.40;126733;1090;114785;-81
2021/07/30 02:07:48;;;;;;;7.03;5.30;;;;;;;20.01;52.02;99530.78;126734;1089;101129;-82
2021/07/30 02:10:39;;;;;;;7.80;5.20;;;;;;;19.99;51.72;99525.62;126737;1089;115143;-82
2021/07/30 02:16:33;;;;;;;8.47;5.10;;;;;;;19.94;51.92;99524.33;126757;1089;112807;-81
2021/07/30 02:19:23;;;;;;;7.13;5.40;;;;;;;19.90;51.94;99523.72;126875;1090;103042;-82
2021/07/30 02:22:11;;;;;;;7.23;5.47;;;;;;;19.85;51.76;99521.45;126673;1090;112876;-82
2021/07/30 02:24:58;;;;;;;7.23;5.33;;;;;;;19.80;51.92;99528.94;126889;1090;102861;-82
2021/07/30 02:27:47;;;;;;;8.20;5.40;;;;;;;19.76;52.13;99532.80;126665;1089;114794;-82
2021/07/30 02:30:35;;;;;;;7.83;5.47;;;;;;;19.72;52.25;99527.86;126729;1090;103020;-82
2021/07/30 02:33:23;;;;;;;11.30;5.37;;;;;;;19.70;52.27;99527.16;126789;1090;102885;-82
2021/07/30 02:36:10;;;;;;;7.20;5.47;;;;;;;19.66;52.29;99533.66;126654;1090;102945;-82
2021/07/30 02:38:58;;;;;;;;;;;;;;;19.62;52.09;99530.43;126791;1090;102879;-82
2021/07/30 02:41:45;;;;;;;6.23;5.07;;;;;;;19.60;52.15;99537.66;126695;1088;102876;-82
2021/07/30 02:44:33;;;;;;;6.53;5.43;;;;;;;19.58;52.39;99531.66;126763;1089;101718;-82
2021/07/30 02:47:21;;;;;;;7.07;5.60;;;;;;;19.58;52.52;99532.49;126555;1088;114082;-82
2021/07/30 02:50:10;;;;;;;6.37;5.23;;;;;;;19.63;52.35;99529.47;126698;1090;102875;-82
2021/07/30 02:52:58;;;;;;;7.53;5.43;;;;;;;19.68;52.26;99537.86;126688;1089;114096;-82
2021/07/30 02:55:48;;;;;;;8.43;6.10;;;;;;;19.72;52.28;99530.51;126682;1090;102916;-82
2021/07/30 02:58:36;;;;;;;;;;;;;;;19.76;51.82;99524.87;126727;1089;113028;-82
2021/07/30 03:01:24;;;;;;;7.55;5.60;;;;;;;19.74;51.91;99534.70;126797;1090;102865;-82
2021/07/30 03:04:12;;;;;;;8.70;6.00;;;;;;;19.75;51.83;99533.77;126621;1089;114119;-82
2021/07/30 03:07:00;;;;;;;6.93;5.57;;;;;;;19.77;52.21;99529.20;126774;1089;102747;-82
2021/07/30 03:09:48;;;;;;;7.13;5.47;;;;;;;19.78;51.82;99541.45;126852;1090;102738;-82
2021/07/30 03:12:37;;;;;;;8.23;5.60;;;;;;;19.84;51.59;99543.59;126758;1090;102870;-82
2021/07/30 03:15:24;;;;;;;9.13;5.70;;;;;;;19.91;51.89;99543.92;126717;1090;102963;-82
2021/07/30 03:18:12;;;;;;;8.47;5.50;;;;;;;19.92;51.68;99546.44;126642;1089;113056;-82
2021/07/30 03:20:59;;;;;;;;;;;;;;;19.88;51.82;99537.08;126785;1090;102946;-82
2021/07/30 03:23:47;;;;;;;6.40;5.63;;;;;;;19.80;52.03;99539.52;126720;1090;103016;-82
2021/07/30 03:26:34;;;;;;;8.40;5.70;;;;;;;19.76;52.04;99540.74;126782;1090;102871;-82
2021/07/30 03:29:22;;;;;;;7.03;5.80;;;;;;;19.78;52.00;99540.61;126717;1090;112875;-82
2021/07/30 03:32:10;;;;;;;9.33;6.20;;;;;;;19.75;52.05;99548.77;126793;1088;102891;-82
2021/07/30 03:34:57;;;;;;;7.43;6.00;;;;;;;19.70;52.17;99538.58;126649;1089;114344;-82
2021/07/30 03:37:46;;;;;;;6.50;5.27;;;;;;;19.72;52.34;99536.64;126823;1090;102850;-82
2021/07/30 03:40:34;;;;;;;9.50;5.90;;;;;;;19.73;52.19;99532.19;126695;1090;113053;-82
2021/07/30 03:43:22;;;;;;;6.93;5.93;;;;;;;19.74;52.33;99539.16;126813;1089;102868;-83
2021/07/30 03:46:09;;;;;;;7.63;5.87;;;;;;;19.74;52.40;99545.29;126617;1090;102991;-83
2021/07/30 03:48:58;;;;;;;7.60;5.67;;;;;;;19.77;52.65;99544.23;126831;1089;113745;-81
2021/07/30 03:51:46;;;;;;;10.73;6.07;;;;;;;19.80;52.69;99544.81;126744;1089;103033;-83
2021/07/30 03:54:33;;;;;;;;;;;;;;;19.83;52.67;99544.56;126658;1090;114119;-83
2021/07/30 03:57:21;;;;;;;11.80;5.73;;;;;;;19.88;52.57;99545.02;126735;1090;102898;-83
2021/07/30 04:00:10;;;;;;;9.13;6.23;;;;;;;19.95;52.49;99542.73;126594;1090;114265;-83
2021/07/30 04:03:00;;;;;;;7.77;5.77;;;;;;;20.00;52.30;99547.63;126752;1090;103018;-83
2021/07/30 04:05:47;;;;;;;8.30;6.50;;;;;;;20.03;52.31;99542.08;126624;1090;114009;-83
2021/07/30 04:08:36;;;;;;;10.87;7.03;;;;;;;20.04;52.37;99554.34;126698;1090;102899;-83
2021/07/30 04:11:24;;;;;;;8.23;6.10;;;;;;;20.06;52.21;99544.47;126562;1090;113040;-83
2021/07/30 04:14:12;;;;;;;10.33;5.87;;;;;;;20.09;52.57;99549.51;126722;1088;103020;-83
2021/07/30 04:17:02;;;;;;;6.90;6.20;;;;;;;20.11;52.47;99548.44;126625;1090;114669;-83
2021/07/30 04:19:50;;;;;;;9.27;6.17;;;;;;;20.14;52.49;99558.77;126773;1090;102858;-83
2021/07/30 04:22:38;;;;;;;6.73;5.87;;;;;;;20.15;52.58;99554.31;126628;1090;114241;-83
2021/07/30 04:25:25;;;;;;;8.50;6.37;;;;;;;20.16;52.43;99561.29;126719;1089;101914;-83
2021/07/30 04:28:13;;;;;;;6.93;6.13;;;;;;;20.16;52.81;99556.00;126763;1090;102896;-82
2021/07/30 04:31:04;;;;;;;;;;;;;;;20.17;52.90;99557.67;126646;1089;113973;-83
2021/07/30 04:33:52;;;;;;;8.07;6.33;;;;;;;20.15;52.97;99546.38;126643;1089;102959;-83
2021/07/30 04:36:40;;;;;;;9.33;6.10;;;;;;;20.15;52.63;99546.38;126594;1089;113897;-81
2021/07/30 04:39:27;;;;;;;7.53;6.00;;;;;;;20.12;52.70;99538.69;126758;1089;102884;-83
2021/07/30 04:42:15;;;;;;;8.17;6.37;;;;;;;20.09;52.71;99539.76;126653;1089;113995;-83
2021/07/30 04:45:03;;;;;;;8.77;6.10;;;;;;;20.14;52.91;99544.70;126645;1090;102936;-83
2021/07/30 04:47:52;;;;;;;10.25;6.30;;;;;;;20.18;52.69;99552.25;126584;1090;113892;-84
2021/07/30 04:50:40;;;;;;;7.97;6.03;;;;;;;20.28;52.85;99554.95;126716;1090;103019;-83
2021/07/30 04:53:27;;;;;;;12.43;5.90;;;;;;;20.37;52.30;99548.91;126567;1090;114111;-84
2021/07/30 04:56:19;;;;;;;8.33;5.90;;;;;;;20.50;52.12;99556.70;126797;1089;102980;-82
2021/07/30 04:59:11;;;;;;;8.20;5.40;;;;;;;20.64;52.40;99550.22;126703;1089;113022;-82
2021/07/30 05:01:59;;;;;;;10.00;5.70;;;;;;;20.80;51.80;99550.59;126903;1090;103018;-83
2021/07/30 05:04:47;;;;;;;8.07;5.87;;;;;;;21.02;51.26;99542.50;126630;1088;114213;-82
2021/07/30 05:07:35;;;;;;;10.30;5.50;;;;;;;21.30;51.05;99546.25;126730;1088;102921;-82
2021/07/30 05:10:22;;;;;;;9.70;6.25;;;;;;;21.60;50.24;99539.22;126728;1089;103170;-82
2021/07/30 05:13:10;;;;;;;8.20;5.83;;;;;;;21.91;49.57;99547.94;126600;1090;113695;-82
2021/07/30 05:15:59;;;;;;;7.80;5.00;;;;;;;22.10;49.47;99542.67;126763;1088;102871;-81
2021/07/30 05:18:47;;;;;;;7.33;4.83;;;;;;;22.27;48.95;99543.79;126680;1090;112997;-82
2021/07/30 05:21:35;;;;;;;7.17;5.10;;;;;;;22.46;48.49;99545.59;126806;1090;103006;-82
2021/07/30 05:24:23;;;;;;;7.20;4.83;;;;;;;22.81;47.71;99536.98;126563;1089;113923;-82
2021/07/30 05:27:11;;;;;;;8.90;5.10;;;;;;;23.18;47.49;99534.35;126773;1089;101620;-82
2021/07/30 05:29:59;;;;;;;7.63;5.60;;;;;;;24.01;46.10;99533.28;126607;1090;114029;-82
2021/07/30 05:32:46;;;;;;;9.73;5.23;;;;;;;24.16;45.75;99540.75;126752;1090;102892;-82
2021/07/30 05:35:34;;;;;;;8.57;4.63;;;;;;;24.91;44.93;99536.66;126680;1090;113903;-82
2021/07/30 05:38:23;;;;;;;9.00;5.27;;;;;;;25.04;44.24;99536.27;126761;1090;102952;-82
2021/07/30 05:41:12;;;;;;;8.70;4.87;;;;;;;25.16;44.08;99540.34;126605;1090;114280;-81
2021/07/30 05:44:00;;;;;;;13.80;4.87;;;;;;;25.71;43.22;99540.73;126735;1090;103002;-81
2021/07/30 05:46:47;;;;;;;9.50;5.00;;;;;;;25.88;42.52;99542.44;126656;1090;114443;-81
2021/07/30 05:49:35;;;;;;;11.80;5.77;;;;;;;26.15;42.16;99537.77;126687;1090;103032;-82
2021/07/30 05:52:23;;;;;;;10.63;5.77;;;;;;;26.14;42.03;99538.78;126846;1090;102848;-81
2021/07/30 05:55:11;;;;;;;9.37;5.83;;;;;;;26.22;41.82;99549.49;126684;1090;113980;-82
2021/07/30 05:57:59;;;;;;;9.87;5.33;;;;;;;26.83;41.46;99548.13;126736;1090;101654;-82
2021/07/30 06:00:46;;;;;;;8.40;5.30;;;;;;;27.60;40.33;99543.01;126667;1089;113980;-82
2021/07/30 06:03:35;;;;;;;9.17;5.10;;;;;;;27.63;39.62;99546.20;126676;1090;102928;-82
2021/07/30 06:06:24;;;;;;;9.30;4.67;;;;;;;28.09;39.28;99542.74;126590;1090;113038;-82
2021/07/30 06:09:13;;;;;;;5.43;4.40;;;;;;;29.06;37.65;99535.67;126812;1090;102680;-82
2021/07/30 06:12:01;;;;;;;5.87;4.70;;;;;;;29.35;37.17;99537.52;126586;1090;114193;-82
2021/07/30 06:14:48;;;;;;;7.43;5.50;;;;;;;29.77;36.97;99542.17;126737;1090;102131;-82
2021/07/30 06:17:37;;;;;;;8.67;4.60;;;;;;;31.51;35.42;99538.80;126588;1089;114283;-82
2021/07/30 06:20:25;;;;;;;6.80;4.23;;;;;;;33.27;33.47;99530.19;126676;1088;102996;-82
2021/07/30 06:23:13;;;;;;;8.90;4.30;;;;;;;34.61;31.54;99533.77;126561;1090;114237;-82
2021/07/30 06:26:00;;;;;;;9.70;4.43;;;;;;;34.73;30.29;99535.54;126708;1088;102847;-82
2021/07/30 06:28:50;;;;;;;6.23;4.43;;;;;;;33.79;30.66;99546.41;126717;1088;103397;-82
2021/07/30 06:31:38;;;;;;;7.43;4.70;;;;;;;32.72;31.09;99534.25;126725;1090;102847;-82
2021/07/30 06:34:26;;;;;;;7.47;4.10;;;;;;;32.10;31.88;99541.67;126661;1090;103090;-82
2021/07/30 06:37:14;;;;;;;6.97;5.10;;;;;;;31.60;31.64;99542.14;126675;1089;114053;-82
2021/07/30 06:40:04;;;;;;;8.23;4.87;;;;;;;30.54;32.22;99545.02;126657;1090;102748;-82
2021/07/30 06:42:51;;;;;;;4.97;3.87;;;;;;;29.47;33.00;99547.63;126638;1090;113186;-82
2021/07/30 06:45:39;;;;;;;7.33;4.33;;;;;;;28.56;33.72;99542.56;126988;1090;102934;-82
2021/07/30 06:48:27;;;;;;;7.20;4.37;;;;;;;28.05;35.15;99549.48;126594;1090;114342;-82
2021/07/30 06:51:15;;;;;;;8.03;4.23;;;;;;;29.06;34.26;99538.36;126801;1090;102863;-82
2021/07/30 06:54:03;;;;;;;6.87;4.07;;;;;;;30.54;33.25;99539.64;126621;1089;113594;-82
2021/07/30 06:56:51;;;;;;;9.03;4.97;;;;;;;30.97;32.64;99537.68;126796;1089;102993;-81
2021/07/30 06:59:38;;;;;;;7.80;4.47;;;;;;;31.45;32.06;99532.36;126676;1088;114131;-82
2021/07/30 07:02:27;;;;;;;6.50;4.00;;;;;;;32.25;31.46;99536.09;126713;1089;102986;-82
2021/07/30 07:05:18;;;;;;;9.23;5.90;;;;;;;32.77;30.55;99526.34;126926;1089;102760;-82
2021/07/30 07:08:05;;;;;;;6.27;4.67;;;;;;;32.51;30.48;99527.21;126781;1090;102866;-82
2021/07/30 07:10:53;;;;;;;10.25;5.40;;;;;;;32.73;30.07;99527.80;126883;1090;102959;-82
2021/07/30 07:13:42;;;;;;;13.90;8.63;;;;;;;33.39;29.88;99535.77;126772;1090;113094;-82
2021/07/30 07:16:30;;;;;;;12.40;5.60;;;;;;;34.22;28.98;99530.33;126819;1090;102859;-83
2021/07/30 07:19:19;;;;;;;7.17;4.70;;;;;;;35.00;28.54;99517.14;126724;1090;113738;-83
2021/07/30 07:22:06;;;;;;;6.87;4.23;;;;;;;35.26;27.22;99517.91;126884;1090;103502;-82
2021/07/30 07:24:54;;;;;;;10.20;3.80;;;;;;;35.88;26.83;99518.58;126844;1090;114016;-81
2021/07/30 07:27:42;;;;;;;5.50;4.40;;;;;;;36.15;26.16;99522.55;126821;1090;102843;-82
2021/07/30 07:30:30;;;;;;;5.80;3.80;;;;;;;36.45;25.44;99517.08;126785;1089;114185;-83
2021/07/30 07:33:18;;;;;;;7.40;3.77;;;;;;;36.78;24.54;99516.45;126868;1090;103050;-82
2021/07/30 07:36:07;;;;;;;6.73;3.63;;;;;;;37.68;24.36;99515.92;126741;1089;113607;-81
2021/07/30 07:38:56;;;;;;;9.73;3.53;;;;;;;37.88;23.79;99514.67;126795;1090;103087;-81
2021/07/30 07:41:44;;;;;;;6.03;3.37;;;;;;;37.86;23.42;99512.20;126787;1090;102996;-80
2021/07/30 07:44:34;;;;;;;5.50;3.60;;;;;;;37.16;23.12;99509.69;126761;1090;102128;-81
2021/07/30 07:47:22;;;;;;;8.07;3.40;;;;;;;37.13;23.29;99507.45;126851;1090;103035;-81
2021/07/30 07:50:11;;;;;;;4.77;3.00;;;;;;;37.59;22.83;99509.23;126633;1090;112977;-81
2021/07/30 07:52:59;;;;;;;6.00;3.40;;;;;;;36.91;22.14;99507.27;126808;1089;102998;-81
2021/07/30 07:55:48;;;;;;;6.67;3.20;;;;;;;35.51;23.02;99512.39;126702;1089;112884;-81
2021/07/30 07:58:37;;;;;;;4.43;3.10;;;;;;;34.69;23.60;99514.55;126765;1089;104061;-81
2021/07/30 08:01:25;;;;;;;5.37;3.50;;;;;;;35.10;23.89;99505.78;126612;1090;114022;-80
2021/07/30 08:04:13;;;;;;;4.80;2.97;;;;;;;35.88;23.02;99502.29;126737;1090;102963;-81
2021/07/30 08:07:03;;;;;;;5.37;3.27;;;;;;;36.50;23.36;99505.50;126623;1089;114078;-81
2021/07/30 08:09:51;;;;;;;5.60;3.03;;;;;;;37.43;22.56;99510.01;126687;1090;102871;-80
2021/07/30 08:12:39;;;;;;;5.27;3.10;;;;;;;37.24;22.76;99506.61;126615;1090;113109;-81
2021/07/30 08:15:28;;;;;;;5.63;2.93;;;;;;;37.89;22.59;99513.63;126635;1090;102919;-81
2021/07/30 08:18:15;;;;;;;6.93;3.20;;;;;;;38.52;22.30;99513.33;126569;1090;114093;-81
2021/07/30 08:21:04;;;;;;;3.20;2.90;;;;;;;38.47;21.91;99515.98;126823;1089;102909;-81
2021/07/30 08:23:52;;;;;;;6.77;3.00;;;;;;;38.01;21.97;99511.64;126781;1089;101797;-81
2021/07/30 08:26:40;;;;;;;6.80;2.80;;;;;;;38.33;21.62;99507.31;126630;1089;112763;-81
2021/07/30 08:29:28;;;;;;;6.13;3.03;;;;;;;38.76;21.77;99499.52;126814;1090;102818;-82
2021/07/30 08:32:17;;;;;;;6.40;2.87;;;;;;;39.47;20.75;99503.98;126666;1090;114127;-81
2021/07/30 08:35:06;;;;;;;3.80;2.97;;;;;;;39.66;20.06;99500.94;126738;1090;102929;-81
2021/07/30 08:37:54;;;;;;;3.80;2.37;;;;;;;39.64;20.09;99503.92;126629;1090;114463;-80
2021/07/30 08:40:47;;;;;;;4.10;3.00;;;;;;;38.84;20.13;99499.93;126638;1090;102978;-80
2021/07/30 08:43:35;;;;;;;3.20;2.53;;;;;;;37.79;19.80;99500.66;126601;1090;113024;-80
2021/07/30 08:46:27;;;;;;;4.70;2.67;;;;;;;37.17;21.07;99498.60;126795;1090;102928;-80
2021/07/30 08:49:15;;;;;;;3.47;2.70;;;;;;;37.24;20.91;99503.06;126594;1089;114217;-80
2021/07/30 08:52:10;;;;;;;3.00;2.60;;;;;;;37.48;20.81;99510.10;126733;1090;102907;-80
2021/07/30 08:54:58;;;;;;;3.83;2.43;;;;;;;37.75;21.03;99497.60;126555;1090;114225;-81
2021/07/30 08:57:47;;;;;;;4.83;2.53;;;;;;;38.02;20.33;99500.51;126653;1090;102967;-81
2021/07/30 09:00:36;;;;;;;6.43;2.47;;;;;;;38.29;20.58;99503.45;126622;1090;114322;-81
2021/07/30 09:03:39;;;;;;;3.57;2.20;;;;;;;38.46;20.10;99508.06;126700;1089;101043;-81
2021/07/30 09:06:27;;;;;;;3.23;2.13;;;;;;;38.57;19.98;99490.77;126576;1090;114659;-80
2021/07/30 09:09:15;;;;;;;2.93;2.40;;;;;;;38.59;19.51;99494.07;126705;1090;102985;-82
2021/07/30 09:12:05;;;;;;;4.77;2.30;;;;;;;38.75;19.92;99492.42;126766;1090;102913;-81
2021/07/30 09:14:53;;;;;;;4.67;2.23;;;;;;;38.77;19.65;99488.36;126640;1089;113964;-81
2021/07/30 09:17:42;;;;;;;3.90;2.57;;;;;;;38.62;19.56;99494.42;126818;1090;102852;-81
2021/07/30 09:20:29;;;;;;;4.77;2.67;;;;;;;38.54;19.79;99483.11;126636;1090;114028;-82
2021/07/30 09:23:18;;;;;;;3.97;2.50;;;;;;;38.43;19.73;99497.67;126620;1089;102869;-81
2021/07/30 09:26:06;;;;;;;5.03;2.30;;;;;;;38.18;19.84;99496.17;126630;1090;112963;-81
2021/07/30 09:28:55;;;;;;;3.97;2.60;;;;;;;38.08;20.25;99485.11;126697;1088;102756;-81
2021/07/30 09:31:55;;;;;;;3.53;2.40;;;;;;;38.43;20.06;99492.22;126646;1090;113168;-81
2021/07/30 09:34:45;;;;;;;4.27;2.47;;;;;;;37.98;20.12;99487.64;126703;1090;102849;-81
2021/07/30 09:37:33;;;;;;;6.73;2.47;;;;;;;37.75;19.86;99485.89;126608;1090;114150;-81
2021/07/30 09:40:21;;;;;;;4.67;2.50;;;;;;;37.42;19.24;99492.04;126704;1090;103031;-82
2021/07/30 09:43:26;;;;;;;2.87;2.27;;;;;;;36.87;19.64;99489.80;126737;1090;114221;-82
2021/07/30 09:46:15;;;;;;;5.53;2.80;;;;;;;36.34;20.34;99471.72;126713;1090;101405;-82
2021/07/30 09:49:03;;;;;;;4.00;2.93;;;;;;;36.13;20.52;99477.70;126690;1089;113714;-78
2021/07/30 09:51:52;;;;;;;6.27;2.37;;;;;;;36.24;20.87;99477.70;126651;1090;103106;-82
2021/07/30 09:55:07;;;;;;;3.40;2.43;;;;;;;36.36;20.54;99468.77;126674;1089;113290;-83
2021/07/30 09:57:56;;;;;;;4.03;2.60;;;;;;;36.52;20.53;99477.03;126958;1090;102939;-83
2021/07/30 10:00:45;;;;;;;5.33;2.70;;;;;;;36.28;19.97;99480.79;126900;1090;114415;-83
2021/07/30 10:03:36;;;;;;;2.93;2.23;;;;;;;35.81;20.16;99474.41;126791;1090;102913;-82
2021/07/30 10:06:27;;;;;;;4.15;2.15;;;;;;;35.46;19.99;99460.73;126755;1090;103015;-81
2021/07/30 10:09:17;;;;;;;6.17;2.27;;;;;;;35.05;20.21;99465.00;126608;1088;113972;-81
2021/07/30 10:12:06;;;;;;;2.97;2.00;;;;;;;34.62;20.54;99465.02;126733;1089;102924;-80
2021/07/30 10:14:55;;;;;;;2.93;2.23;;;;;;;34.03;21.11;99478.02;126777;1088;114217;-81
2021/07/30 10:17:56;;;;;;;5.40;2.50;;;;;;;33.95;22.29;99462.06;126728;1089;101869;-81
2021/07/30 10:20:46;;;;;;;3.70;2.10;;;;;;;34.20;22.13;99446.65;126782;1090;114112;-80
2021/07/30 10:23:39;;;;;;;7.60;2.40;;;;;;;34.35;21.98;99440.92;126888;1088;101817;-81
2021/07/30 10:26:28;;;;;;;4.90;2.33;;;;;;;34.54;22.15;99426.36;126771;1090;114094;-82
2021/07/30 10:29:16;;;;;;;5.53;2.40;;;;;;;34.68;22.10;99439.77;126830;1089;103329;-81
2021/07/30 10:32:04;;;;;;;4.03;2.40;;;;;;;34.68;21.73;99437.88;126574;1090;114349;-81
2021/07/30 10:34:55;;;;;;;4.83;2.43;;;;;;;34.66;21.72;99433.75;126634;1089;103438;-81
2021/07/30 10:37:45;;;;;;;5.03;2.60;;;;;;;34.55;21.06;99429.89;126736;1090;114009;-81
2021/07/30 10:40:33;;;;;;;8.20;2.70;;;;;;;34.24;21.71;99439.73;126801;1090;101142;-81
2021/07/30 10:43:22;;;;;;;4.53;2.67;;;;;;;33.98;21.60;99431.03;126489;1089;114319;-82
2021/07/30 10:46:13;;;;;;;5.03;2.80;;;;;;;33.62;21.82;99427.94;126684;1089;102962;-82
2021/07/30 10:49:01;;;;;;;5.43;2.30;;;;;;;33.41;22.65;99436.39;126567;1089;114267;-81
2021/07/30 10:51:50;;;;;;;4.90;2.40;;;;;;;33.52;23.02;99424.05;126791;1090;102894;-81
2021/07/30 10:54:57;;;;;;;4.43;2.30;;;;;;;33.47;22.38;99413.06;126797;1090;102894;-81
2021/07/30 10:57:50;;;;;;;4.37;2.63;;;;;;;33.10;23.32;99412.82;126785;1090;102853;-81
2021/07/30 11:00:54;;;;;;;2.30;1.83;;;;;;;32.99;23.24;99417.02;126679;1090;102802;-80
2021/07/30 11:04:10;;;;;;;4.83;2.30;;;;;;;32.79;23.34;99415.41;126668;1089;113015;-81
2021/07/30 11:06:59;;;;;;;4.40;2.20;;;;;;;32.48;23.26;99413.41;126548;1092;102978;-80
2021/07/30 11:09:46;;;;;;;2.80;2.50;;;;;;;32.29;23.62;99404.31;126431;1092;113840;-81
2021/07/30 11:12:34;;;;;;;2.60;2.40;;;;;;;32.13;23.89;99398.28;126570;1092;102881;-80
2021/07/30 11:15:31;;;;;;;3.43;2.50;;;;;;;32.06;24.27;99419.05;126492;1093;114086;-80
2021/07/30 11:18:19;;;;;;;3.30;2.35;;;;;;;31.68;23.77;99391.83;126209;1093;103022;-79
2021/07/30 11:21:06;;;;;;;3.63;2.50;;;;;;;31.19;24.44;99398.38;126172;1092;114109;-80
2021/07/30 11:23:59;;;;;;;5.13;2.70;;;;;;;30.99;25.05;99400.14;126259;1093;103188;-80
2021/07/30 11:26:48;;;;;;;4.33;2.60;;;;;;;30.90;24.87;99388.73;126302;1091;114316;-79
2021/07/30 11:29:51;;;;;;;5.70;2.60;;;;;;;30.87;25.06;99393.66;126366;1093;102933;-80
2021/07/30 11:32:39;;;;;;;5.23;3.03;;;;;;;30.61;25.21;99394.34;126167;1093;113133;-80
2021/07/30 11:35:29;;;;;;;3.80;2.30;;;;;;;30.66;25.92;99381.98;126513;1093;103038;-79
2021/07/30 11:38:19;;;;;;;4.23;2.87;;;;;;;30.61;25.81;99387.14;126386;1093;114298;-79
2021/07/30 11:41:07;;;;;;;4.23;2.50;;;;;;;30.40;26.42;99376.44;126533;1093;102986;-80
2021/07/30 11:44:09;;;;;;;5.97;2.90;;;;;;;30.45;26.47;99387.42;126550;1090;114058;-79
2021/07/30 11:47:00;;;;;;;6.67;2.70;;;;;;;30.47;26.25;99387.23;126631;1090;103495;-79
2021/07/30 11:50:00;;;;;;;3.30;2.45;;;;;;;30.62;26.47;99380.72;126597;1089;114357;-79
2021/07/30 11:52:48;;;;;;;3.47;2.70;;;;;;;30.76;26.17;99376.23;126600;1088;102766;-79
2021/07/30 11:55:36;;;;;;;4.07;2.57;;;;;;;30.74;26.03;99372.09;126587;1089;114159;-79
2021/07/30 11:58:23;;;;;;;4.70;2.60;;;;;;;30.46;26.46;99370.25;126667;1090;102229;-79
2021/07/30 12:01:13;;;;;;;7.60;2.43;;;;;;;30.39;26.28;99369.40;126605;1090;102874;-77
2021/07/30 12:04:13;;;;;;;5.60;3.03;;;;;;;30.35;26.61;99368.14;126540;1090;113804;-78
2021/07/30 12:07:14;;;;;;;3.37;2.47;;;;;;;30.34;26.52;99367.31;126557;1090;102869;-79
2021/07/30 12:10:09;;;;;;;4.43;3.00;;;;;;;30.31;26.62;99373.06;126492;1090;113915;-78
2021/07/30 12:12:59;;;;;;;3.00;2.60;;;;;;;29.99;26.51;99379.04;126591;1089;102860;-78
2021/07/30 12:15:47;;;;;;;5.10;2.60;;;;;;;30.06;27.25;99370.02;126493;1090;114293;-79
2021/07/30 12:18:42;;;;;;;4.13;2.53;;;;;;;29.90;27.61;99359.52;126557;1089;103006;-78
2021/07/30 12:21:30;;;;;;;2.77;2.53;;;;;;;29.77;27.33;99362.92;126510;1090;114225;-79
2021/07/30 12:24:18;;;;;;;5.67;2.53;;;;;;;29.74;27.10;99354.42;126633;1090;102993;-79
2021/07/30 12:27:20;;;;;;;3.97;2.70;;;;;;;29.72;27.55;99369.91;126684;1090;114090;-79
2021/07/30 12:30:25;;;;;;;4.10;2.93;;;;;;;29.66;27.31;99368.02;126538;1090;103004;-79
2021/07/30 12:33:42;;;;;;;3.00;2.70;;;;;;;29.55;27.34;99366.66;126478;1090;113118;-79
2021/07/30 12:36:31;;;;;;;4.80;2.60;;;;;;;29.40;27.67;99360.48;126676;1089;102925;-79
2021/07/30 12:39:20;;;;;;;6.63;3.17;;;;;;;29.35;27.62;99350.33;126521;1090;114460;-78
2021/07/30 12:42:19;;;;;;;5.57;3.10;;;;;;;29.38;28.01;99352.63;126622;1090;102977;-78
2021/07/30 12:45:14;;;;;;;3.97;3.17;;;;;;;29.28;28.06;99349.44;126474;1089;113165;-78
2021/07/30 12:48:03;;;;;;;4.73;2.80;;;;;;;29.02;28.58;99360.72;126566;1090;102853;-77
2021/07/30 12:50:51;;;;;;;3.47;3.00;;;;;;;28.81;28.41;99342.69;126466;1090;114125;-77
2021/07/30 12:54:07;;;;;;;3.87;2.60;;;;;;;28.77;28.69;99352.14;126556;1090;102872;-78
2021/07/30 12:56:59;;;;;;;4.37;2.50;;;;;;;28.71;28.86;99352.05;126459;1089;113893;-79
2021/07/30 13:00:07;;;;;;;3.33;2.70;;;;;;;28.69;28.53;99341.50;126728;1090;102852;-78
2021/07/30 13:03:09;;;;;;;4.17;2.80;;;;;;;28.72;28.39;99342.97;126513;1089;113991;-79
2021/07/30 13:06:00;;;;;;;4.97;2.53;;;;;;;28.76;28.20;99334.38;126637;1090;102916;-77